sensor_id;sensor_type;location;lat;lon;timestamp;P1;durP1;ratioP1;P2;durP2;ratioP2
6386;SDS011;3226;42.162;24.756;2023-04-24T00:01:07;6.60;;;6.30;;
6386;SDS011;3226;42.162;24.756;2023-04-24T00:03:35;6.40;;;6.13;;
6386;SDS011;3226;42.162;24.756;2023-04-24T00:06:05;5.33;;;5.13;;
6386;SDS011;3226;42.162;24.756;2023-04-24T00:08:34;6.43;;;6.13;;
6386;SDS011;3226;42.162;24.756;2023-04-24T00:11:02;6.27;;;6.03;;
6386;SDS011;3226;42.162;24.756;2023-04-24T00:13:31;5.40;;;5.20;;
6386;SDS011;3226;42.162;24.756;2023-04-24T00:16:00;6.53;;;6.23;;
6386;SDS011;3226;42.162;24.756;2023-04-24T00:18:28;5.87;;;5.67;;
6386;SDS011;3226;42.162;24.756;2023-04-24T00:20:56;6.20;;;6.00;;
6386;SDS011;3226;42.162;24.756;2023-04-24T00:23:25;5.80;;;5.60;;
6386;SDS011;3226;42.162;24.756;2023-04-24T00:25:52;7.47;;;7.00;;
6386;SDS011;3226;42.162;24.756;2023-04-24T00:28:20;6.87;;;6.57;;
6386;SDS011;3226;42.162;24.756;2023-04-24T00:30:48;6.30;;;6.03;;
6386;SDS011;3226;42.162;24.756;2023-04-24T00:33:18;7.00;;;6.70;;
6386;SDS011;3226;42.162;24.756;2023-04-24T00:35:46;6.53;;;6.23;;
6386;SDS011;3226;42.162;24.756;2023-04-24T00:38:13;7.00;;;6.70;;
6386;SDS011;3226;42.162;24.756;2023-04-24T00:40:41;6.50;;;6.20;;
6386;SDS011;3226;42.162;24.756;2023-04-24T00:43:09;6.47;;;6.17;;
6386;SDS011;3226;42.162;24.756;2023-04-24T00:45:38;6.47;;;6.17;;
6386;SDS011;3226;42.162;24.756;2023-04-24T00:48:06;5.77;;;5.57;;
6386;SDS011;3226;42.162;24.756;2023-04-24T00:50:36;7.20;;;6.90;;
6386;SDS011;3226;42.162;24.756;2023-04-24T00:53:05;6.70;;;6.40;;
6386;SDS011;3226;42.162;24.756;2023-04-24T00:55:33;7.27;;;6.97;;
6386;SDS011;3226;42.162;24.756;2023-04-24T00:58:03;8.77;;;8.37;;
6386;SDS011;3226;42.162;24.756;2023-04-24T01:00:32;7.83;;;7.53;;
6386;SDS011;3226;42.162;24.756;2023-04-24T01:03:00;6.43;;;6.13;;
6386;SDS011;3226;42.162;24.756;2023-04-24T01:05:32;6.57;;;6.27;;
6386;SDS011;3226;42.162;24.756;2023-04-24T01:08:02;7.10;;;6.80;;
6386;SDS011;3226;42.162;24.756;2023-04-24T01:10:30;7.00;;;6.70;;
6386;SDS011;3226;42.162;24.756;2023-04-24T01:13:00;6.10;;;5.90;;
6386;SDS011;3226;42.162;24.756;2023-04-24T01:15:28;6.30;;;6.03;;
6386;SDS011;3226;42.162;24.756;2023-04-24T01:17:56;5.80;;;5.60;;
6386;SDS011;3226;42.162;24.756;2023-04-24T01:20:24;6.20;;;6.00;;
6386;SDS011;3226;42.162;24.756;2023-04-24T01:22:55;6.80;;;6.50;;
6386;SDS011;3226;42.162;24.756;2023-04-24T01:25:23;6.17;;;5.97;;
6386;SDS011;3226;42.162;24.756;2023-04-24T01:27:53;6.83;;;6.53;;
6386;SDS011;3226;42.162;24.756;2023-04-24T01:30:21;6.17;;;5.93;;
6386;SDS011;3226;42.162;24.756;2023-04-24T01:32:49;6.83;;;6.53;;
6386;SDS011;3226;42.162;24.756;2023-04-24T01:35:18;6.33;;;6.10;;
6386;SDS011;3226;42.162;24.756;2023-04-24T01:37:46;5.87;;;5.67;;
6386;SDS011;3226;42.162;24.756;2023-04-24T01:40:15;7.87;;;7.57;;
6386;SDS011;3226;42.162;24.756;2023-04-24T01:42:43;9.30;;;8.90;;
6386;SDS011;3226;42.162;24.756;2023-04-24T01:45:12;7.80;;;7.50;;
6386;SDS011;3226;42.162;24.756;2023-04-24T01:47:40;6.67;;;6.37;;
6386;SDS011;3226;42.162;24.756;2023-04-24T01:50:09;8.43;;;8.07;;
6386;SDS011;3226;42.162;24.756;2023-04-24T01:52:37;9.00;;;8.60;;
6386;SDS011;3226;42.162;24.756;2023-04-24T01:55:05;11.40;;;10.90;;
6386;SDS011;3226;42.162;24.756;2023-04-24T01:57:36;12.93;;;12.33;;
6386;SDS011;3226;42.162;24.756;2023-04-24T02:00:04;11.30;;;10.80;;
6386;SDS011;3226;42.162;24.756;2023-04-24T02:02:33;9.60;;;9.20;;
6386;SDS011;3226;42.162;24.756;2023-04-24T02:05:02;6.63;;;6.33;;
6386;SDS011;3226;42.162;24.756;2023-04-24T02:07:30;5.77;;;5.57;;
6386;SDS011;3226;42.162;24.756;2023-04-24T02:09:59;5.73;;;5.53;;
6386;SDS011;3226;42.162;24.756;2023-04-24T02:12:27;6.27;;;6.03;;
6386;SDS011;3226;42.162;24.756;2023-04-24T02:14:56;6.77;;;6.47;;
6386;SDS011;3226;42.162;24.756;2023-04-24T02:17:24;6.77;;;6.47;;
6386;SDS011;3226;42.162;24.756;2023-04-24T02:19:52;6.80;;;6.50;;
6386;SDS011;3226;42.162;24.756;2023-04-24T02:22:20;7.93;;;7.63;;
6386;SDS011;3226;42.162;24.756;2023-04-24T02:24:48;5.70;;;5.50;;
6386;SDS011;3226;42.162;24.756;2023-04-24T02:27:16;6.57;;;6.27;;
6386;SDS011;3226;42.162;24.756;2023-04-24T02:29:44;6.73;;;6.43;;
6386;SDS011;3226;42.162;24.756;2023-04-24T02:32:13;5.97;;;5.77;;
6386;SDS011;3226;42.162;24.756;2023-04-24T02:34:42;6.73;;;6.43;;
6386;SDS011;3226;42.162;24.756;2023-04-24T02:37:10;6.47;;;6.17;;
6386;SDS011;3226;42.162;24.756;2023-04-24T02:39:38;6.57;;;6.27;;
6386;SDS011;3226;42.162;24.756;2023-04-24T02:42:06;5.90;;;5.70;;
6386;SDS011;3226;42.162;24.756;2023-04-24T02:44:34;7.10;;;6.80;;
6386;SDS011;3226;42.162;24.756;2023-04-24T02:47:02;5.77;;;5.57;;
6386;SDS011;3226;42.162;24.756;2023-04-24T02:49:32;6.73;;;6.43;;
6386;SDS011;3226;42.162;24.756;2023-04-24T02:52:00;6.67;;;6.37;;
6386;SDS011;3226;42.162;24.756;2023-04-24T02:54:28;7.70;;;7.40;;
6386;SDS011;3226;42.162;24.756;2023-04-24T02:56:55;8.17;;;7.87;;
6386;SDS011;3226;42.162;24.756;2023-04-24T02:59:24;6.53;;;6.23;;
6386;SDS011;3226;42.162;24.756;2023-04-24T03:01:53;6.17;;;5.97;;
6386;SDS011;3226;42.162;24.756;2023-04-24T03:04:21;7.27;;;6.97;;
6386;SDS011;3226;42.162;24.756;2023-04-24T03:06:50;7.33;;;7.03;;
6386;SDS011;3226;42.162;24.756;2023-04-24T03:09:19;7.43;;;7.13;;
6386;SDS011;3226;42.162;24.756;2023-04-24T03:11:47;7.13;;;6.83;;
6386;SDS011;3226;42.162;24.756;2023-04-24T03:14:15;6.30;;;6.07;;
6386;SDS011;3226;42.162;24.756;2023-04-24T03:16:43;6.60;;;6.30;;
6386;SDS011;3226;42.162;24.756;2023-04-24T03:19:11;7.20;;;6.90;;
6386;SDS011;3226;42.162;24.756;2023-04-24T03:21:39;7.70;;;7.40;;
6386;SDS011;3226;42.162;24.756;2023-04-24T03:24:09;7.57;;;7.27;;
6386;SDS011;3226;42.162;24.756;2023-04-24T03:26:37;7.43;;;7.13;;
6386;SDS011;3226;42.162;24.756;2023-04-24T03:29:05;7.50;;;7.20;;
6386;SDS011;3226;42.162;24.756;2023-04-24T03:31:33;6.63;;;6.33;;
6386;SDS011;3226;42.162;24.756;2023-04-24T03:34:01;7.00;;;6.70;;
6386;SDS011;3226;42.162;24.756;2023-04-24T03:36:29;7.23;;;6.93;;
6386;SDS011;3226;42.162;24.756;2023-04-24T03:38:57;6.73;;;6.43;;
6386;SDS011;3226;42.162;24.756;2023-04-24T03:41:27;6.83;;;6.53;;
6386;SDS011;3226;42.162;24.756;2023-04-24T03:43:55;6.60;;;6.30;;
6386;SDS011;3226;42.162;24.756;2023-04-24T03:46:23;6.57;;;6.27;;
6386;SDS011;3226;42.162;24.756;2023-04-24T03:48:51;7.30;;;7.00;;
6386;SDS011;3226;42.162;24.756;2023-04-24T03:51:19;6.50;;;6.20;;
6386;SDS011;3226;42.162;24.756;2023-04-24T03:53:47;7.33;;;7.03;;
6386;SDS011;3226;42.162;24.756;2023-04-24T03:56:15;7.37;;;7.07;;
6386;SDS011;3226;42.162;24.756;2023-04-24T03:58:44;6.73;;;6.43;;
6386;SDS011;3226;42.162;24.756;2023-04-24T04:01:12;6.17;;;5.97;;
6386;SDS011;3226;42.162;24.756;2023-04-24T04:03:42;6.73;;;6.43;;
6386;SDS011;3226;42.162;24.756;2023-04-24T04:06:10;6.67;;;6.37;;
6386;SDS011;3226;42.162;24.756;2023-04-24T04:08:39;5.77;;;5.57;;
6386;SDS011;3226;42.162;24.756;2023-04-24T04:11:07;5.93;;;5.73;;
6386;SDS011;3226;42.162;24.756;2023-04-24T04:13:35;8.03;;;7.67;;
6386;SDS011;3226;42.162;24.756;2023-04-24T04:16:04;8.40;;;8.00;;
6386;SDS011;3226;42.162;24.756;2023-04-24T04:18:33;8.23;;;7.90;;
6386;SDS011;3226;42.162;24.756;2023-04-24T04:21:01;7.23;;;6.93;;
6386;SDS011;3226;42.162;24.756;2023-04-24T04:23:29;7.60;;;7.30;;
6386;SDS011;3226;42.162;24.756;2023-04-24T04:25:58;7.10;;;6.80;;
6386;SDS011;3226;42.162;24.756;2023-04-24T04:28:26;7.17;;;6.87;;
6386;SDS011;3226;42.162;24.756;2023-04-24T04:30:54;6.13;;;5.93;;
6386;SDS011;3226;42.162;24.756;2023-04-24T04:33:25;8.00;;;7.63;;
6386;SDS011;3226;42.162;24.756;2023-04-24T04:35:53;6.27;;;6.07;;
6386;SDS011;3226;42.162;24.756;2023-04-24T04:38:23;8.13;;;7.83;;
6386;SDS011;3226;42.162;24.756;2023-04-24T04:40:53;9.07;;;8.67;;
6386;SDS011;3226;42.162;24.756;2023-04-24T04:43:22;6.90;;;6.60;;
6386;SDS011;3226;42.162;24.756;2023-04-24T04:45:51;5.60;;;5.40;;
6386;SDS011;3226;42.162;24.756;2023-04-24T04:48:20;8.00;;;7.70;;
6386;SDS011;3226;42.162;24.756;2023-04-24T04:50:50;5.43;;;5.23;;
6386;SDS011;3226;42.162;24.756;2023-04-24T04:53:18;5.80;;;5.60;;
6386;SDS011;3226;42.162;24.756;2023-04-24T04:55:46;6.70;;;6.40;;
6386;SDS011;3226;42.162;24.756;2023-04-24T04:58:14;7.07;;;6.77;;
6386;SDS011;3226;42.162;24.756;2023-04-24T05:00:42;7.20;;;6.90;;
6386;SDS011;3226;42.162;24.756;2023-04-24T05:03:10;6.90;;;6.60;;
6386;SDS011;3226;42.162;24.756;2023-04-24T05:05:44;7.37;;;7.07;;
6386;SDS011;3226;42.162;24.756;2023-04-24T05:08:13;8.53;;;8.13;;
6386;SDS011;3226;42.162;24.756;2023-04-24T05:10:53;6.83;;;6.53;;
6386;SDS011;3226;42.162;24.756;2023-04-24T05:13:22;7.10;;;6.80;;
6386;SDS011;3226;42.162;24.756;2023-04-24T05:16:04;6.67;;;6.37;;
6386;SDS011;3226;42.162;24.756;2023-04-24T05:18:33;6.20;;;5.93;;
6386;SDS011;3226;42.162;24.756;2023-04-24T05:21:01;7.67;;;7.37;;
6386;SDS011;3226;42.162;24.756;2023-04-24T05:23:30;7.10;;;6.80;;
6386;SDS011;3226;42.162;24.756;2023-04-24T05:25:58;5.87;;;5.67;;
6386;SDS011;3226;42.162;24.756;2023-04-24T05:28:26;7.00;;;6.70;;
6386;SDS011;3226;42.162;24.756;2023-04-24T05:30:54;8.00;;;7.63;;
6386;SDS011;3226;42.162;24.756;2023-04-24T05:33:23;7.33;;;7.03;;
6386;SDS011;3226;42.162;24.756;2023-04-24T05:35:51;6.60;;;6.30;;
6386;SDS011;3226;42.162;24.756;2023-04-24T05:38:19;7.97;;;7.67;;
6386;SDS011;3226;42.162;24.756;2023-04-24T05:40:48;7.60;;;7.30;;
6386;SDS011;3226;42.162;24.756;2023-04-24T05:43:16;7.13;;;6.83;;
6386;SDS011;3226;42.162;24.756;2023-04-24T05:45:44;6.63;;;6.33;;
6386;SDS011;3226;42.162;24.756;2023-04-24T05:48:12;5.57;;;5.37;;
6386;SDS011;3226;42.162;24.756;2023-04-24T05:50:40;6.20;;;5.97;;
6386;SDS011;3226;42.162;24.756;2023-04-24T05:53:08;6.57;;;6.27;;
6386;SDS011;3226;42.162;24.756;2023-04-24T05:55:37;5.47;;;5.27;;
6386;SDS011;3226;42.162;24.756;2023-04-24T05:58:06;5.50;;;5.30;;
6386;SDS011;3226;42.162;24.756;2023-04-24T06:00:34;6.00;;;5.80;;
6386;SDS011;3226;42.162;24.756;2023-04-24T06:03:02;6.13;;;5.93;;
6386;SDS011;3226;42.162;24.756;2023-04-24T06:05:30;5.87;;;5.67;;
6386;SDS011;3226;42.162;24.756;2023-04-24T06:07:58;5.87;;;5.67;;
6386;SDS011;3226;42.162;24.756;2023-04-24T06:10:26;5.97;;;5.77;;
6386;SDS011;3226;42.162;24.756;2023-04-24T06:12:55;5.77;;;5.57;;
6386;SDS011;3226;42.162;24.756;2023-04-24T06:15:29;5.67;;;5.47;;
6386;SDS011;3226;42.162;24.756;2023-04-24T06:17:57;6.83;;;6.53;;
6386;SDS011;3226;42.162;24.756;2023-04-24T06:20:26;6.83;;;6.53;;
6386;SDS011;3226;42.162;24.756;2023-04-24T06:22:54;6.50;;;6.20;;
6386;SDS011;3226;42.162;24.756;2023-04-24T06:25:24;6.70;;;6.40;;
6386;SDS011;3226;42.162;24.756;2023-04-24T06:27:53;6.17;;;5.93;;
6386;SDS011;3226;42.162;24.756;2023-04-24T06:30:21;6.03;;;5.83;;
6386;SDS011;3226;42.162;24.756;2023-04-24T06:32:50;5.73;;;5.53;;
6386;SDS011;3226;42.162;24.756;2023-04-24T06:35:18;5.83;;;5.63;;
6386;SDS011;3226;42.162;24.756;2023-04-24T06:37:46;6.10;;;5.87;;
6386;SDS011;3226;42.162;24.756;2023-04-24T06:40:14;5.40;;;5.20;;
6386;SDS011;3226;42.162;24.756;2023-04-24T06:42:44;6.17;;;5.97;;
6386;SDS011;3226;42.162;24.756;2023-04-24T06:45:12;6.17;;;5.97;;
6386;SDS011;3226;42.162;24.756;2023-04-24T06:47:40;5.53;;;5.33;;
6386;SDS011;3226;42.162;24.756;2023-04-24T06:50:10;6.70;;;6.40;;
6386;SDS011;3226;42.162;24.756;2023-04-24T06:52:38;6.30;;;6.03;;
6386;SDS011;3226;42.162;24.756;2023-04-24T06:55:07;7.00;;;6.70;;
6386;SDS011;3226;42.162;24.756;2023-04-24T06:57:36;6.33;;;6.03;;
6386;SDS011;3226;42.162;24.756;2023-04-24T07:00:04;6.63;;;6.33;;
6386;SDS011;3226;42.162;24.756;2023-04-24T07:02:36;5.93;;;5.73;;
6386;SDS011;3226;42.162;24.756;2023-04-24T07:05:04;6.57;;;6.27;;
6386;SDS011;3226;42.162;24.756;2023-04-24T07:07:34;6.13;;;5.93;;
6386;SDS011;3226;42.162;24.756;2023-04-24T07:10:04;6.37;;;6.10;;
6386;SDS011;3226;42.162;24.756;2023-04-24T07:12:33;6.17;;;5.93;;
6386;SDS011;3226;42.162;24.756;2023-04-24T07:15:02;5.97;;;5.77;;
6386;SDS011;3226;42.162;24.756;2023-04-24T07:17:30;7.10;;;6.80;;
6386;SDS011;3226;42.162;24.756;2023-04-24T07:19:58;6.03;;;5.83;;
6386;SDS011;3226;42.162;24.756;2023-04-24T07:22:26;6.47;;;6.17;;
6386;SDS011;3226;42.162;24.756;2023-04-24T07:24:55;6.53;;;6.23;;
6386;SDS011;3226;42.162;24.756;2023-04-24T07:27:23;5.93;;;5.73;;
6386;SDS011;3226;42.162;24.756;2023-04-24T07:29:51;6.73;;;6.43;;
6386;SDS011;3226;42.162;24.756;2023-04-24T07:32:19;6.80;;;6.50;;
6386;SDS011;3226;42.162;24.756;2023-04-24T07:34:47;6.17;;;5.97;;
6386;SDS011;3226;42.162;24.756;2023-04-24T07:37:15;6.43;;;6.13;;
6386;SDS011;3226;42.162;24.756;2023-04-24T07:39:42;6.23;;;6.03;;
6386;SDS011;3226;42.162;24.756;2023-04-24T07:42:12;7.47;;;7.17;;
6386;SDS011;3226;42.162;24.756;2023-04-24T07:44:41;7.50;;;7.20;;
6386;SDS011;3226;42.162;24.756;2023-04-24T07:47:08;6.40;;;6.10;;
6386;SDS011;3226;42.162;24.756;2023-04-24T07:49:36;6.53;;;6.23;;
6386;SDS011;3226;42.162;24.756;2023-04-24T07:52:04;7.60;;;7.30;;
6386;SDS011;3226;42.162;24.756;2023-04-24T07:54:32;7.37;;;7.07;;
6386;SDS011;3226;42.162;24.756;2023-04-24T07:57:00;7.13;;;6.83;;
6386;SDS011;3226;42.162;24.756;2023-04-24T07:59:30;7.57;;;7.27;;
6386;SDS011;3226;42.162;24.756;2023-04-24T08:01:58;8.50;;;8.10;;
6386;SDS011;3226;42.162;24.756;2023-04-24T08:04:27;7.10;;;6.80;;
6386;SDS011;3226;42.162;24.756;2023-04-24T08:06:55;7.23;;;6.93;;
6386;SDS011;3226;42.162;24.756;2023-04-24T08:09:23;7.27;;;6.97;;
6386;SDS011;3226;42.162;24.756;2023-04-24T08:11:53;11.63;;;11.13;;
6386;SDS011;3226;42.162;24.756;2023-04-24T08:14:21;8.13;;;7.80;;
6386;SDS011;3226;42.162;24.756;2023-04-24T08:16:50;8.33;;;7.97;;
6386;SDS011;3226;42.162;24.756;2023-04-24T08:19:18;11.40;;;10.90;;
6386;SDS011;3226;42.162;24.756;2023-04-24T08:21:46;8.43;;;8.03;;
6386;SDS011;3226;42.162;24.756;2023-04-24T08:24:14;10.00;;;9.53;;
6386;SDS011;3226;42.162;24.756;2023-04-24T08:26:42;9.73;;;9.33;;
6386;SDS011;3226;42.162;24.756;2023-04-24T08:29:10;9.23;;;8.83;;
6386;SDS011;3226;42.162;24.756;2023-04-24T08:31:38;10.13;;;9.73;;
6386;SDS011;3226;42.162;24.756;2023-04-24T08:34:07;8.97;;;8.57;;
6386;SDS011;3226;42.162;24.756;2023-04-24T08:36:36;9.53;;;9.13;;
6386;SDS011;3226;42.162;24.756;2023-04-24T08:39:12;8.67;;;8.27;;
6386;SDS011;3226;42.162;24.756;2023-04-24T08:41:41;9.53;;;9.13;;
6386;SDS011;3226;42.162;24.756;2023-04-24T08:44:12;9.37;;;8.97;;
6386;SDS011;3226;42.162;24.756;2023-04-24T08:46:42;8.93;;;8.53;;
6386;SDS011;3226;42.162;24.756;2023-04-24T08:49:14;8.77;;;8.37;;
6386;SDS011;3226;42.162;24.756;2023-04-24T08:51:43;8.47;;;8.07;;
6386;SDS011;3226;42.162;24.756;2023-04-24T08:54:13;8.37;;;7.97;;
6386;SDS011;3226;42.162;24.756;2023-04-24T08:56:41;9.40;;;9.00;;
6386;SDS011;3226;42.162;24.756;2023-04-24T08:59:11;8.57;;;8.17;;
6386;SDS011;3226;42.162;24.756;2023-04-24T09:01:39;9.03;;;8.63;;
6386;SDS011;3226;42.162;24.756;2023-04-24T09:04:08;8.47;;;8.07;;
6386;SDS011;3226;42.162;24.756;2023-04-24T09:06:40;7.73;;;7.43;;
6386;SDS011;3226;42.162;24.756;2023-04-24T09:09:08;7.80;;;7.50;;
6386;SDS011;3226;42.162;24.756;2023-04-24T09:11:38;7.90;;;7.60;;
6386;SDS011;3226;42.162;24.756;2023-04-24T09:14:06;7.03;;;6.73;;
6386;SDS011;3226;42.162;24.756;2023-04-24T09:16:35;6.20;;;6.00;;
6386;SDS011;3226;42.162;24.756;2023-04-24T09:19:04;7.53;;;7.23;;
6386;SDS011;3226;42.162;24.756;2023-04-24T09:21:32;7.57;;;7.27;;
6386;SDS011;3226;42.162;24.756;2023-04-24T09:24:03;7.83;;;7.53;;
6386;SDS011;3226;42.162;24.756;2023-04-24T09:26:34;7.33;;;7.03;;
6386;SDS011;3226;42.162;24.756;2023-04-24T09:29:03;6.97;;;6.67;;
6386;SDS011;3226;42.162;24.756;2023-04-24T09:31:31;7.83;;;7.53;;
6386;SDS011;3226;42.162;24.756;2023-04-24T09:34:00;7.43;;;7.13;;
6386;SDS011;3226;42.162;24.756;2023-04-24T09:36:33;7.27;;;6.97;;
6386;SDS011;3226;42.162;24.756;2023-04-24T09:39:05;7.10;;;6.80;;
6386;SDS011;3226;42.162;24.756;2023-04-24T09:41:36;7.23;;;6.93;;
6386;SDS011;3226;42.162;24.756;2023-04-24T09:44:12;7.60;;;7.30;;
6386;SDS011;3226;42.162;24.756;2023-04-24T09:46:41;7.87;;;7.57;;
6386;SDS011;3226;42.162;24.756;2023-04-24T09:49:13;7.37;;;7.07;;
6386;SDS011;3226;42.162;24.756;2023-04-24T09:51:42;7.20;;;6.90;;
6386;SDS011;3226;42.162;24.756;2023-04-24T09:54:14;7.63;;;7.33;;
6386;SDS011;3226;42.162;24.756;2023-04-24T09:56:43;7.60;;;7.30;;
6386;SDS011;3226;42.162;24.756;2023-04-24T09:59:12;7.60;;;7.30;;
6386;SDS011;3226;42.162;24.756;2023-04-24T10:01:41;7.50;;;7.20;;
6386;SDS011;3226;42.162;24.756;2023-04-24T10:04:17;7.23;;;6.93;;
6386;SDS011;3226;42.162;24.756;2023-04-24T10:06:47;7.80;;;7.50;;
6386;SDS011;3226;42.162;24.756;2023-04-24T10:09:18;7.63;;;7.33;;
6386;SDS011;3226;42.162;24.756;2023-04-24T10:11:48;7.73;;;7.43;;
6386;SDS011;3226;42.162;24.756;2023-04-24T10:14:17;7.83;;;7.53;;
6386;SDS011;3226;42.162;24.756;2023-04-24T10:16:47;7.67;;;7.37;;
6386;SDS011;3226;42.162;24.756;2023-04-24T10:19:15;6.47;;;6.17;;
6386;SDS011;3226;42.162;24.756;2023-04-24T10:21:45;7.17;;;6.87;;
6386;SDS011;3226;42.162;24.756;2023-04-24T10:24:14;7.33;;;7.03;;
6386;SDS011;3226;42.162;24.756;2023-04-24T10:26:45;7.60;;;7.30;;
6386;SDS011;3226;42.162;24.756;2023-04-24T10:29:16;7.70;;;7.40;;
6386;SDS011;3226;42.162;24.756;2023-04-24T10:31:45;7.93;;;7.63;;
6386;SDS011;3226;42.162;24.756;2023-04-24T10:34:14;8.03;;;7.63;;
6386;SDS011;3226;42.162;24.756;2023-04-24T10:36:46;7.37;;;7.07;;
6386;SDS011;3226;42.162;24.756;2023-04-24T10:39:22;7.30;;;7.00;;
6386;SDS011;3226;42.162;24.756;2023-04-24T10:41:54;6.67;;;6.37;;
6386;SDS011;3226;42.162;24.756;2023-04-24T10:44:24;8.07;;;7.77;;
6386;SDS011;3226;42.162;24.756;2023-04-24T10:46:53;8.07;;;7.77;;
6386;SDS011;3226;42.162;24.756;2023-04-24T10:49:27;7.40;;;7.10;;
6386;SDS011;3226;42.162;24.756;2023-04-24T10:51:59;7.27;;;6.97;;
6386;SDS011;3226;42.162;24.756;2023-04-24T10:54:29;6.93;;;6.63;;
6386;SDS011;3226;42.162;24.756;2023-04-24T11:00:10;7.50;;;7.20;;
6386;SDS011;3226;42.162;24.756;2023-04-24T11:02:41;7.33;;;7.03;;
6386;SDS011;3226;42.162;24.756;2023-04-24T11:05:15;7.80;;;7.50;;
6386;SDS011;3226;42.162;24.756;2023-04-24T11:10:40;7.40;;;7.10;;
6386;SDS011;3226;42.162;24.756;2023-04-24T11:13:15;8.87;;;8.47;;
6386;SDS011;3226;42.162;24.756;2023-04-24T11:15:44;7.50;;;7.20;;
6386;SDS011;3226;42.162;24.756;2023-04-24T11:18:14;7.43;;;7.13;;
6386;SDS011;3226;42.162;24.756;2023-04-24T11:20:43;6.97;;;6.67;;
6386;SDS011;3226;42.162;24.756;2023-04-24T11:23:12;6.90;;;6.60;;
6386;SDS011;3226;42.162;24.756;2023-04-24T11:25:41;7.60;;;7.30;;
6386;SDS011;3226;42.162;24.756;2023-04-24T11:28:09;7.37;;;7.07;;
6386;SDS011;3226;42.162;24.756;2023-04-24T11:30:43;7.67;;;7.37;;
6386;SDS011;3226;42.162;24.756;2023-04-24T11:33:11;7.43;;;7.13;;
6386;SDS011;3226;42.162;24.756;2023-04-24T11:35:47;7.10;;;6.80;;
6386;SDS011;3226;42.162;24.756;2023-04-24T11:38:15;8.03;;;7.70;;
6386;SDS011;3226;42.162;24.756;2023-04-24T11:40:50;7.37;;;7.07;;
6386;SDS011;3226;42.162;24.756;2023-04-24T11:43:21;7.90;;;7.60;;
6386;SDS011;3226;42.162;24.756;2023-04-24T11:45:49;8.00;;;7.70;;
6386;SDS011;3226;42.162;24.756;2023-04-24T11:48:18;7.07;;;6.77;;
6386;SDS011;3226;42.162;24.756;2023-04-24T11:50:49;7.47;;;7.17;;
6386;SDS011;3226;42.162;24.756;2023-04-24T11:53:18;7.57;;;7.27;;
6386;SDS011;3226;42.162;24.756;2023-04-24T11:55:47;7.07;;;6.77;;
6386;SDS011;3226;42.162;24.756;2023-04-24T11:58:15;6.93;;;6.63;;
6386;SDS011;3226;42.162;24.756;2023-04-24T12:00:55;6.90;;;6.60;;
6386;SDS011;3226;42.162;24.756;2023-04-24T12:03:24;7.03;;;6.73;;
6386;SDS011;3226;42.162;24.756;2023-04-24T12:05:52;6.43;;;6.13;;
6386;SDS011;3226;42.162;24.756;2023-04-24T12:08:31;6.83;;;6.53;;
6386;SDS011;3226;42.162;24.756;2023-04-24T12:11:03;7.30;;;7.00;;
6386;SDS011;3226;42.162;24.756;2023-04-24T12:13:33;7.60;;;7.30;;
6386;SDS011;3226;42.162;24.756;2023-04-24T12:16:03;6.03;;;5.83;;
6386;SDS011;3226;42.162;24.756;2023-04-24T12:18:32;6.83;;;6.53;;
6386;SDS011;3226;42.162;24.756;2023-04-24T12:21:16;7.23;;;6.93;;
6386;SDS011;3226;42.162;24.756;2023-04-24T12:23:48;6.57;;;6.27;;
6386;SDS011;3226;42.162;24.756;2023-04-24T12:26:17;6.67;;;6.37;;
6386;SDS011;3226;42.162;24.756;2023-04-24T12:28:46;8.27;;;7.90;;
6386;SDS011;3226;42.162;24.756;2023-04-24T12:31:17;7.40;;;7.10;;
6386;SDS011;3226;42.162;24.756;2023-04-24T12:33:48;7.30;;;7.00;;
6386;SDS011;3226;42.162;24.756;2023-04-24T12:36:16;7.33;;;7.03;;
6386;SDS011;3226;42.162;24.756;2023-04-24T12:38:44;7.30;;;7.00;;
6386;SDS011;3226;42.162;24.756;2023-04-24T12:41:13;7.70;;;7.40;;
6386;SDS011;3226;42.162;24.756;2023-04-24T12:43:50;6.93;;;6.63;;
6386;SDS011;3226;42.162;24.756;2023-04-24T12:46:21;6.70;;;6.40;;
6386;SDS011;3226;42.162;24.756;2023-04-24T12:48:49;7.53;;;7.23;;
6386;SDS011;3226;42.162;24.756;2023-04-24T12:51:17;7.10;;;6.80;;
6386;SDS011;3226;42.162;24.756;2023-04-24T12:53:45;7.20;;;6.90;;
6386;SDS011;3226;42.162;24.756;2023-04-24T12:56:13;6.70;;;6.40;;
6386;SDS011;3226;42.162;24.756;2023-04-24T12:58:41;7.43;;;7.13;;
6386;SDS011;3226;42.162;24.756;2023-04-24T13:01:09;7.67;;;7.37;;
6386;SDS011;3226;42.162;24.756;2023-04-24T13:03:38;6.63;;;6.33;;
6386;SDS011;3226;42.162;24.756;2023-04-24T13:06:07;7.10;;;6.80;;
6386;SDS011;3226;42.162;24.756;2023-04-24T13:08:35;6.10;;;5.90;;
6386;SDS011;3226;42.162;24.756;2023-04-24T13:11:03;6.47;;;6.17;;
6386;SDS011;3226;42.162;24.756;2023-04-24T13:13:31;7.10;;;6.80;;
6386;SDS011;3226;42.162;24.756;2023-04-24T13:16:00;6.63;;;6.33;;
6386;SDS011;3226;42.162;24.756;2023-04-24T13:18:28;6.47;;;6.17;;
6386;SDS011;3226;42.162;24.756;2023-04-24T13:20:57;7.27;;;6.97;;
6386;SDS011;3226;42.162;24.756;2023-04-24T13:23:25;6.50;;;6.20;;
6386;SDS011;3226;42.162;24.756;2023-04-24T13:25:54;7.03;;;6.73;;
6386;SDS011;3226;42.162;24.756;2023-04-24T13:28:24;7.13;;;6.83;;
6386;SDS011;3226;42.162;24.756;2023-04-24T13:30:52;6.87;;;6.57;;
6386;SDS011;3226;42.162;24.756;2023-04-24T13:33:20;7.13;;;6.83;;
6386;SDS011;3226;42.162;24.756;2023-04-24T13:35:48;6.67;;;6.37;;
6386;SDS011;3226;42.162;24.756;2023-04-24T13:38:17;7.47;;;7.17;;
6386;SDS011;3226;42.162;24.756;2023-04-24T13:40:47;7.20;;;6.90;;
6386;SDS011;3226;42.162;24.756;2023-04-24T13:43:16;6.17;;;5.93;;
6386;SDS011;3226;42.162;24.756;2023-04-24T13:45:44;7.40;;;6.97;;
6386;SDS011;3226;42.162;24.756;2023-04-24T13:48:12;7.63;;;7.33;;
6386;SDS011;3226;42.162;24.756;2023-04-24T13:50:42;7.63;;;7.33;;
6386;SDS011;3226;42.162;24.756;2023-04-24T13:53:10;7.03;;;6.73;;
6386;SDS011;3226;42.162;24.756;2023-04-24T13:55:39;8.47;;;8.07;;
6386;SDS011;3226;42.162;24.756;2023-04-24T13:58:08;8.27;;;7.90;;
6386;SDS011;3226;42.162;24.756;2023-04-24T14:00:36;8.60;;;8.20;;
6386;SDS011;3226;42.162;24.756;2023-04-24T14:03:04;7.23;;;6.93;;
6386;SDS011;3226;42.162;24.756;2023-04-24T14:05:33;8.80;;;8.40;;
6386;SDS011;3226;42.162;24.756;2023-04-24T14:08:04;7.97;;;7.67;;
6386;SDS011;3226;42.162;24.756;2023-04-24T14:10:32;8.57;;;8.17;;
6386;SDS011;3226;42.162;24.756;2023-04-24T14:13:02;7.03;;;6.73;;
6386;SDS011;3226;42.162;24.756;2023-04-24T14:15:30;5.97;;;5.77;;
6386;SDS011;3226;42.162;24.756;2023-04-24T14:17:57;6.90;;;6.60;;
6386;SDS011;3226;42.162;24.756;2023-04-24T14:20:26;7.10;;;6.80;;
6386;SDS011;3226;42.162;24.756;2023-04-24T14:22:53;7.17;;;6.87;;
6386;SDS011;3226;42.162;24.756;2023-04-24T14:25:24;6.70;;;6.40;;
6386;SDS011;3226;42.162;24.756;2023-04-24T14:27:52;7.03;;;6.73;;
6386;SDS011;3226;42.162;24.756;2023-04-24T14:30:22;6.73;;;6.43;;
6386;SDS011;3226;42.162;24.756;2023-04-24T14:32:50;7.63;;;7.33;;
6386;SDS011;3226;42.162;24.756;2023-04-24T14:35:18;8.03;;;7.73;;
6386;SDS011;3226;42.162;24.756;2023-04-24T14:37:46;6.97;;;6.67;;
6386;SDS011;3226;42.162;24.756;2023-04-24T14:40:14;7.63;;;7.33;;
6386;SDS011;3226;42.162;24.756;2023-04-24T14:43:02;7.57;;;7.17;;
6386;SDS011;3226;42.162;24.756;2023-04-24T14:45:32;8.17;;;7.77;;
6386;SDS011;3226;42.162;24.756;2023-04-24T14:48:00;7.17;;;6.87;;
6386;SDS011;3226;42.162;24.756;2023-04-24T14:50:28;6.13;;;5.93;;
6386;SDS011;3226;42.162;24.756;2023-04-24T14:52:57;7.43;;;7.13;;
6386;SDS011;3226;42.162;24.756;2023-04-24T14:55:25;6.90;;;6.60;;
6386;SDS011;3226;42.162;24.756;2023-04-24T14:57:53;6.80;;;6.50;;
6386;SDS011;3226;42.162;24.756;2023-04-24T15:00:21;8.07;;;7.73;;
6386;SDS011;3226;42.162;24.756;2023-04-24T15:02:52;7.47;;;7.17;;
6386;SDS011;3226;42.162;24.756;2023-04-24T15:05:21;7.00;;;6.70;;
6386;SDS011;3226;42.162;24.756;2023-04-24T15:07:51;6.97;;;6.67;;
6386;SDS011;3226;42.162;24.756;2023-04-24T15:10:19;7.53;;;7.23;;
6386;SDS011;3226;42.162;24.756;2023-04-24T15:12:49;6.93;;;6.63;;
6386;SDS011;3226;42.162;24.756;2023-04-24T15:15:17;6.63;;;6.33;;
6386;SDS011;3226;42.162;24.756;2023-04-24T15:17:45;6.73;;;6.43;;